Time;durP1;ratioP1;P1;durP2;ratioP2;P2;SDS_P1;SDS_P2;PMS_P1;PMS_P2;Temp;Humidity;BMP_temperature;BMP_pressure;BME280_temperature;BME280_humidity;BME280_pressure;Samples;Min_cycle;Max_cycle;Signal;HPM_P1;HPM_P2
2020/12/28 00:01:21;;;;;;;3.17;2.30;;;5.60;99.90;;;;;;10524634;28;20494;-71
2020/12/28 00:06:22;;;;;;;3.63;2.28;;;5.70;99.90;;;;;;10513049;28;20558;-71
2020/12/28 00:11:24;;;;;;;4.60;2.80;;;5.80;99.90;;;;;;10524315;28;20127;-71
2020/12/28 00:16:25;;;;;;;4.07;2.80;;;5.70;99.90;;;;;;10525563;28;20127;-72
2020/12/28 00:21:27;;;;;;;6.50;3.00;;;5.80;99.90;;;;;;10509591;28;20492;-71
2020/12/28 00:26:37;;;;;;;4.60;3.08;;;5.80;99.90;;;;;;10524561;28;20127;-71
2020/12/28 00:31:38;;;;;;;3.38;2.28;;;6.00;99.90;;;;;;10516977;28;20484;-71
2020/12/28 00:36:40;;;;;;;4.15;2.60;;;6.10;99.90;;;;;;10518245;28;20052;-71
2020/12/28 00:41:41;;;;;;;5.25;3.92;;;6.10;99.90;;;;;;10524782;28;20450;-71
2020/12/28 00:46:42;;;;;;;6.80;3.70;;;6.10;99.90;;;;;;10532065;28;20083;-71
2020/12/28 00:51:44;;;;;;;11.70;8.95;;;6.10;99.90;;;;;;10532182;28;20504;-71
2020/12/28 00:56:49;;;;;;;5.45;4.18;;;6.10;99.90;;;;;;10530985;28;20044;-71
2020/12/28 01:01:55;;;;;;;6.07;4.55;;;6.10;99.90;;;;;;10530844;28;20075;-71
2020/12/28 01:06:56;;;;;;;5.57;3.40;;;6.10;99.90;;;;;;10530805;28;20435;-71
2020/12/28 01:11:58;;;;;;;2.10;1.52;;;6.00;99.90;;;;;;10528935;28;20044;-71
2020/12/28 01:16:59;;;;;;;3.17;2.13;;;6.00;99.90;;;;;;10514837;28;20052;-71
2020/12/28 01:22:01;;;;;;;1.70;1.20;;;6.20;99.90;;;;;;10510731;28;20079;-71
2020/12/28 01:27:02;;;;;;;3.00;1.30;;;6.30;99.90;;;;;;10511134;28;20139;-71
2020/12/28 01:32:03;;;;;;;3.03;1.08;;;6.40;99.90;;;;;;10531340;28;20048;-70
2020/12/28 01:37:05;;;;;;;2.70;1.40;;;6.30;99.90;;;;;;10527899;28;20067;-71
2020/12/28 01:42:07;;;;;;;2.65;1.50;;;6.40;99.90;;;;;;10524999;28;20159;-71
2020/12/28 01:47:09;;;;;;;2.65;1.42;;;6.30;99.90;;;;;;10496358;28;20139;-70
2020/12/28 01:52:10;;;;;;;2.10;1.33;;;6.50;99.90;;;;;;10530729;28;20083;-70
2020/12/28 01:57:11;;;;;;;2.65;1.40;;;6.50;99.90;;;;;;10530575;28;20526;-70
2020/12/28 02:02:17;;;;;;;1.98;1.30;;;6.40;99.90;;;;;;10531131;28;20093;-71
2020/12/28 02:07:22;;;;;;;1.15;1.00;;;6.40;99.90;;;;;;10530829;28;20184;-70
2020/12/28 02:12:23;;;;;;;2.25;1.10;;;6.40;99.90;;;;;;10530941;28;20098;-70
2020/12/28 02:17:25;;;;;;;2.08;1.20;;;6.50;99.90;;;;;;10530168;28;20113;-70
2020/12/28 02:22:27;;;;;;;1.75;1.20;;;6.50;99.90;;;;;;10530314;28;20048;-71
2020/12/28 02:27:29;;;;;;;2.40;1.40;;;6.50;99.90;;;;;;10516046;28;20399;-70
2020/12/28 02:32:31;;;;;;;2.58;1.60;;;6.50;99.90;;;;;;10528578;28;20396;-70
2020/12/28 02:37:37;;;;;;;1.17;1.08;;;6.40;99.90;;;;;;10529351;28;20047;-70
2020/12/28 02:42:39;;;;;;;1.27;1.15;;;6.40;99.90;;;;;;10529752;28;20086;-70
2020/12/28 02:47:40;;;;;;;5.72;2.17;;;6.40;99.90;;;;;;10528992;28;20075;-71
2020/12/28 02:52:45;;;;;;;3.20;1.90;;;6.30;99.90;;;;;;10498228;28;20084;-70
2020/12/28 02:57:47;;;;;;;2.10;1.40;;;6.30;99.90;;;;;;10529238;28;20105;-70
2020/12/28 03:02:48;;;;;;;1.33;1.00;;;6.30;99.90;;;;;;10531435;28;20052;-70
2020/12/28 03:07:50;;;;;;;2.50;1.20;;;6.20;99.90;;;;;;10536645;28;20051;-70
2020/12/28 03:12:52;;;;;;;1.42;1.02;;;6.20;99.90;;;;;;10535157;28;20101;-70
2020/12/28 03:17:53;;;;;;;0.95;0.90;;;6.20;99.90;;;;;;10535940;28;20464;-70
2020/12/28 03:22:54;;;;;;;1.35;1.00;;;6.20;99.90;;;;;;10535250;28;20052;-71
2020/12/28 03:27:56;;;;;;;0.90;0.90;;;6.20;99.90;;;;;;10532772;28;20078;-70
2020/12/28 03:32:57;;;;;;;0.82;0.82;;;6.10;99.90;;;;;;10535914;28;20094;-70
2020/12/28 03:37:59;;;;;;;0.70;0.70;;;6.10;99.90;;;;;;10535661;28;20083;-70
2020/12/28 03:43:00;;;;;;;1.00;0.90;;;6.00;99.90;;;;;;10536040;28;20484;-70
2020/12/28 03:48:02;;;;;;;1.00;0.90;;;6.00;99.90;;;;;;10536223;28;20048;-70
2020/12/28 03:53:03;;;;;;;1.77;1.10;;;6.00;99.90;;;;;;10535786;28;20048;-70
2020/12/28 03:58:05;;;;;;;1.30;1.00;;;5.90;99.90;;;;;;10535492;28;20093;-70
2020/12/28 04:03:07;;;;;;;1.38;1.00;;;5.90;99.90;;;;;;10532620;28;20075;-70
2020/12/28 04:08:09;;;;;;;2.13;0.90;;;6.00;99.90;;;;;;10529644;28;20630;-70
2020/12/28 04:13:10;;;;;;;1.15;0.93;;;6.00;99.90;;;;;;10530834;28;20121;-70
2020/12/28 04:18:12;;;;;;;0.80;0.80;;;6.00;99.90;;;;;;10536064;28;20080;-71
2020/12/28 04:23:14;;;;;;;0.90;0.90;;;6.10;99.90;;;;;;10535610;28;20080;-71
2020/12/28 04:28:15;;;;;;;0.80;0.80;;;6.10;99.90;;;;;;10533997;28;20585;-70
2020/12/28 04:33:17;;;;;;;1.10;1.00;;;6.10;99.90;;;;;;10534182;28;20158;-70
2020/12/28 04:38:19;;;;;;;1.33;0.90;;;6.10;99.90;;;;;;10535257;28;20074;-71
2020/12/28 04:43:20;;;;;;;0.75;0.75;;;6.10;99.90;;;;;;10534969;28;20446;-70
2020/12/28 04:48:22;;;;;;;1.65;0.80;;;6.20;99.90;;;;;;10535543;28;20071;-70
2020/12/28 04:53:25;;;;;;;1.00;0.90;;;6.30;99.90;;;;;;10535028;28;20090;-70
2020/12/28 04:58:26;;;;;;;0.82;0.80;;;6.40;99.90;;;;;;10534370;28;20568;-69
2020/12/28 05:03:29;;;;;;;1.23;1.00;;;6.30;99.50;;;;;;10534416;28;20083;-70
2020/12/28 05:08:31;;;;;;;1.15;1.00;;;6.30;99.70;;;;;;10534318;28;20040;-70
2020/12/28 05:13:32;;;;;;;1.13;1.00;;;6.20;99.90;;;;;;10533668;28;20477;-70
2020/12/28 05:18:34;;;;;;;1.42;1.02;;;6.20;99.80;;;;;;10533240;28;20083;-70
2020/12/28 05:23:35;;;;;;;0.80;0.80;;;6.20;99.60;;;;;;10532455;28;20048;-70
2020/12/28 05:28:38;;;;;;;2.67;1.00;;;6.20;99.20;;;;;;10533102;28;20079;-70
2020/12/28 05:33:40;;;;;;;1.67;1.10;;;6.20;99.40;;;;;;10510714;28;20134;-70
2020/12/28 05:38:44;;;;;;;1.10;1.00;;;6.20;99.70;;;;;;10531666;28;20083;-69
2020/12/28 05:43:47;;;;;;;1.10;1.00;;;6.20;99.40;;;;;;10532743;28;20044;-70
2020/12/28 05:48:54;;;;;;;1.00;1.00;;;6.20;99.30;;;;;;10532692;28;20056;-69
2020/12/28 05:53:56;;;;;;;2.72;1.05;;;6.20;99.20;;;;;;10532286;28;20471;-70
2020/12/28 05:58:59;;;;;;;1.17;1.08;;;6.10;99.10;;;;;;10531600;28;20079;-70
2020/12/28 06:04:01;;;;;;;1.20;1.10;;;6.00;98.50;;;;;;10509990;28;20044;-70
2020/12/28 06:09:02;;;;;;;2.40;1.10;;;5.70;98.80;;;;;;10532156;28;20102;-70
2020/12/28 06:14:17;;;;;;;1.33;1.10;;;5.50;98.90;;;;;;10531639;28;20105;-70
2020/12/28 06:19:28;;;;;;;3.17;1.20;;;5.50;98.70;;;;;;10531403;28;20620;-69
2020/12/28 06:24:32;;;;;;;1.83;1.00;;;5.50;98.30;;;;;;10531113;28;20046;-70
2020/12/28 06:29:36;;;;;;;2.83;1.30;;;5.60;98.40;;;;;;10525813;28;20075;-69
2020/12/28 06:34:38;;;;;;;0.95;0.90;;;5.60;97.80;;;;;;10514742;28;20090;-70
2020/12/28 06:39:39;;;;;;;2.20;1.23;;;5.60;97.90;;;;;;10530642;28;20134;-70
2020/12/28 06:44:42;;;;;;;3.67;1.85;;;5.50;97.80;;;;;;10530205;28;20044;-69
2020/12/28 06:49:44;;;;;;;5.63;2.97;;;5.50;98.60;;;;;;10530433;28;20471;-70
2020/12/28 06:54:45;;;;;;;5.78;3.60;;;5.50;98.80;;;;;;10529981;28;20580;-70
2020/12/28 06:59:49;;;;;;;4.93;2.90;;;5.50;98.90;;;;;;10529989;28;20079;-70
2020/12/28 07:04:51;;;;;;;11.65;6.50;;;5.70;98.70;;;;;;10530256;28;20078;-69
2020/12/28 07:09:52;;;;;;;4.80;2.85;;;5.70;98.90;;;;;;10529558;28;20446;-70
2020/12/28 07:15:02;;;;;;;6.07;2.88;;;5.70;98.50;;;;;;10528909;28;20109;-70
2020/12/28 07:20:12;;;;;;;5.00;1.80;;;5.80;98.50;;;;;;10528257;28;20498;-70
2020/12/28 07:25:13;;;;;;;3.65;2.10;;;5.80;98.20;;;;;;10528941;28;20124;-70
2020/12/28 07:30:15;;;;;;;8.18;2.97;;;5.70;98.20;;;;;;10528504;28;20694;-70
2020/12/28 07:35:18;;;;;;;3.83;2.10;;;5.60;99.20;;;;;;10528734;28;20127;-70
2020/12/28 07:40:19;;;;;;;4.45;2.08;;;5.70;99.20;;;;;;10529006;28;20476;-70
2020/12/28 07:45:21;;;;;;;2.88;1.33;;;5.80;98.80;;;;;;10528654;28;20073;-71
2020/12/28 07:50:25;;;;;;;2.28;1.33;;;5.90;98.10;;;;;;10536212;28;20117;-71
2020/12/28 07:55:29;;;;;;;3.33;1.60;;;5.90;98.50;;;;;;10537227;28;20457;-72
2020/12/28 08:00:44;;;;;;;4.00;1.40;;;5.90;98.70;;;;;;10520706;28;20056;-71
2020/12/28 08:05:48;;;;;;;3.22;1.60;;;6.00;98.50;;;;;;10529392;28;20127;-71
2020/12/28 08:10:55;;;;;;;4.10;2.20;;;6.00;98.80;;;;;;10534634;28;20097;-71
2020/12/28 08:16:11;;;;;;;2.88;1.88;;;6.00;98.30;;;;;;10505994;28;20610;-72
2020/12/28 08:21:12;;;;;;;4.45;2.15;;;6.10;98.70;;;;;;10492534;28;20049;-71
2020/12/28 08:26:19;;;;;;;4.15;1.60;;;6.20;98.90;;;;;;10491824;28;20219;-72
2020/12/28 08:31:33;;;;;;;3.05;1.98;;;6.20;98.80;;;;;;10491134;28;20048;-71
2020/12/28 08:36:41;;;;;;;4.90;2.20;;;6.30;98.60;;;;;;10473536;28;20571;-72
2020/12/28 08:41:52;;;;;;;8.73;4.40;;;6.20;98.80;;;;;;10483766;28;20049;-71
2020/12/28 08:46:54;;;;;;;8.88;4.35;;;6.30;98.50;;;;;;10490028;28;20083;-71
2020/12/28 08:52:10;;;;;;;3.47;1.70;;;6.30;98.80;;;;;;10490851;28;20546;-71
2020/12/28 08:57:22;;;;;;;4.25;1.95;;;6.20;98.90;;;;;;10486863;28;20680;-70
2020/12/28 09:02:25;;;;;;;3.47;2.17;;;6.30;98.80;;;;;;10476055;28;20059;-69
2020/12/28 09:07:28;;;;;;;3.45;1.80;;;6.40;98.60;;;;;;10490106;28;20044;-70
2020/12/28 09:12:29;;;;;;;4.55;2.00;;;6.50;98.40;;;;;;10490010;28;20041;-70
2020/12/28 09:17:31;;;;;;;4.00;2.67;;;6.60;98.20;;;;;;10488918;28;20084;-70
2020/12/28 09:22:32;;;;;;;4.32;2.38;;;6.50;99.00;;;;;;10489200;28;20146;-71
2020/12/28 09:27:34;;;;;;;4.65;2.40;;;6.50;99.50;;;;;;10489705;28;20550;-70
2020/12/28 09:32:35;;;;;;;6.65;2.70;;;6.70;99.40;;;;;;10486896;28;20476;-70
2020/12/28 09:37:37;;;;;;;9.10;3.65;;;6.80;99.40;;;;;;10488085;28;20087;-70
2020/12/28 09:42:38;;;;;;;6.57;2.90;;;6.90;99.20;;;;;;10456972;28;20052;-69
2020/12/28 09:47:42;;;;;;;7.60;3.17;;;7.10;99.00;;;;;;10473716;28;20493;-69
2020/12/28 09:52:43;;;;;;;4.47;3.00;;;7.10;98.90;;;;;;10488454;28;20091;-69
2020/12/28 09:57:45;;;;;;;5.75;2.70;;;7.20;98.50;;;;;;10487245;28;20107;-69
2020/12/28 10:02:47;;;;;;;8.82;4.60;;;7.00;98.40;;;;;;10489775;28;20049;-69
2020/12/28 10:07:49;;;;;;;5.95;3.47;;;6.90;98.60;;;;;;10489415;28;20127;-69
2020/12/28 10:12:50;;;;;;;5.88;3.00;;;7.00;98.80;;;;;;10489711;28;20052;-69
2020/12/28 10:18:22;;;;;;;5.40;2.85;;;7.10;98.90;;;;;;10488978;28;20079;-69
2020/12/28 10:23:24;;;;;;;4.13;2.70;;;7.20;98.90;;;;;;10489039;28;20083;-69
2020/12/28 10:28:27;;;;;;;5.90;2.20;;;7.30;98.40;;;;;;10503947;28;20051;-70
2020/12/28 10:33:28;;;;;;;3.88;2.00;;;7.40;98.00;;;;;;10489196;28;20139;-69
2020/12/28 10:38:30;;;;;;;4.25;1.75;;;7.60;97.30;;;;;;10487847;28;20673;-69
2020/12/28 10:43:32;;;;;;;4.82;2.10;;;7.80;96.70;;;;;;10502310;28;20125;-69
2020/12/28 10:48:33;;;;;;;3.53;1.95;;;7.80;96.30;;;;;;10488390;28;20855;-69
2020/12/28 10:53:34;;;;;;;4.30;2.05;;;7.80;96.80;;;;;;10488588;28;20097;-70
2020/12/28 10:58:36;;;;;;;7.10;2.88;;;7.90;96.50;;;;;;10486015;28;20432;-74
2020/12/28 11:03:38;;;;;;;3.95;2.22;;;7.90;99.30;;;;;;10486664;28;20045;-70
2020/12/28 11:08:39;;;;;;;8.60;3.03;;;8.00;96.30;;;;;;10487770;28;20052;-71
2020/12/28 11:13:41;;;;;;;5.22;2.50;;;8.00;96.30;;;;;;10487609;28;20550;-70
2020/12/28 11:18:42;;;;;;;5.75;2.38;;;7.90;96.20;;;;;;10487265;28;20067;-70
2020/12/28 11:24:00;;;;;;;7.68;4.32;;;8.00;95.80;;;;;;10501958;28;20378;-70
2020/12/28 11:29:04;;;;;;;6.45;3.30;;;7.90;96.10;;;;;;10487085;28;20541;-70
2020/12/28 11:34:06;;;;;;;5.03;2.90;;;8.00;96.20;;;;;;10487566;28;20079;-70
2020/12/28 11:39:11;;;;;;;6.82;3.45;;;8.10;95.60;;;;;;10486796;28;20382;-71
2020/12/28 11:44:14;;;;;;;5.00;2.78;;;8.10;95.70;;;;;;10487483;28;20052;-71
2020/12/28 11:49:16;;;;;;;5.45;2.65;;;8.10;95.50;;;;;;10486739;28;20400;-70
2020/12/28 11:54:17;;;;;;;7.10;3.05;;;7.90;95.30;;;;;;10486368;28;20559;-71
2020/12/28 11:59:19;;;;;;;5.22;2.80;;;7.90;95.90;;;;;;10486603;28;20095;-70
2020/12/28 12:04:48;;;;;;;3.70;2.30;;;8.10;96.10;;;;;;10486455;28;20068;-71
2020/12/28 12:09:42;;;;;;;3.72;2.25;;;8.10;95.40;;;;;;10487188;28;20557;-71
2020/12/28 12:14:43;;;;;;;4.90;2.53;;;8.10;95.50;;;;;;10487478;28;20447;-71
2020/12/28 12:19:45;;;;;;;7.75;2.60;;;8.20;95.60;;;;;;10487314;28;20139;-71
2020/12/28 12:24:46;;;;;;;5.03;2.80;;;8.20;95.80;;;;;;10486914;28;20045;-71
2020/12/28 12:29:47;;;;;;;5.72;3.00;;;8.20;95.50;;;;;;10486437;28;20083;-72
2020/12/28 12:34:49;;;;;;;5.78;2.90;;;8.10;95.70;;;;;;10489981;28;20080;-71
2020/12/28 12:39:51;;;;;;;4.45;3.05;;;8.10;96.10;;;;;;10494501;28;20052;-70
2020/12/28 12:44:52;;;;;;;5.95;3.50;;;7.90;97.00;;;;;;10494244;28;20057;-71
2020/12/28 12:49:53;;;;;;;6.80;3.75;;;7.90;97.50;;;;;;10492946;28;20094;-72
2020/12/28 12:54:55;;;;;;;5.05;3.33;;;8.00;97.90;;;;;;10493672;28;20076;-72
2020/12/28 13:00:05;;;;;;;5.43;2.92;;;8.00;98.00;;;;;;10493235;28;20072;-71
2020/12/28 13:05:09;;;;;;;4.78;3.38;;;7.90;98.20;;;;;;10493273;28;20049;-71
2020/12/28 13:10:11;;;;;;;6.10;4.13;;;7.80;99.00;;;;;;10493286;28;20144;-71
2020/12/28 13:15:13;;;;;;;5.93;4.60;;;7.80;98.90;;;;;;10492651;28;20048;-71
2020/12/28 13:20:15;;;;;;;8.68;5.80;;;7.80;99.30;;;;;;10492389;28;20047;-71
2020/12/28 13:25:17;;;;;;;8.23;5.80;;;7.90;99.00;;;;;;10487172;28;20128;-71
2020/12/28 13:30:19;;;;;;;6.10;4.55;;;7.90;99.70;;;;;;10450126;28;20068;-71
2020/12/28 13:35:21;;;;;;;6.32;4.45;;;8.00;99.90;;;;;;10450786;28;20056;-72
2020/12/28 13:40:23;;;;;;;9.13;7.57;;;8.00;99.70;;;;;;10450904;28;20128;-71
2020/12/28 13:45:24;;;;;;;6.88;5.38;;;8.00;99.90;;;;;;10448947;28;20072;-72
2020/12/28 13:50:26;;;;;;;6.72;5.00;;;7.90;99.90;;;;;;10449701;28;20126;-71
2020/12/28 13:55:27;;;;;;;6.00;4.60;;;7.90;99.90;;;;;;10449907;28;20545;-71
2020/12/28 14:00:28;;;;;;;5.22;4.70;;;7.80;99.90;;;;;;10447970;28;20303;-70
2020/12/28 14:05:30;;;;;;;4.50;3.38;;;7.80;99.90;;;;;;10450013;28;20054;-70
2020/12/28 14:10:31;;;;;;;6.28;4.97;;;7.70;99.90;;;;;;10449402;28;20084;-70
2020/12/28 14:15:33;;;;;;;5.53;4.30;;;7.80;99.90;;;;;;10448381;28;20085;-70
2020/12/28 14:20:35;;;;;;;6.05;3.30;;;7.70;99.90;;;;;;10449121;28;20083;-70
2020/12/28 14:25:36;;;;;;;3.97;3.10;;;7.70;99.90;;;;;;10455318;28;20106;-70
2020/12/28 14:30:38;;;;;;;5.38;3.90;;;7.70;99.90;;;;;;10488720;28;20087;-71
2020/12/28 14:35:39;;;;;;;5.40;3.70;;;7.60;99.90;;;;;;10489480;28;20451;-70
2020/12/28 14:40:41;;;;;;;4.80;3.20;;;7.50;99.90;;;;;;10488836;28;20087;-70
2020/12/28 14:45:42;;;;;;;3.88;2.75;;;7.50;99.90;;;;;;10488243;28;20084;-70
2020/12/28 14:50:44;;;;;;;3.95;2.95;;;7.40;99.90;;;;;;10488793;28;20059;-70
2020/12/28 14:55:45;;;;;;;4.75;3.20;;;7.50;99.90;;;;;;10489239;28;20127;-70
2020/12/28 15:00:47;;;;;;;4.53;3.53;;;7.50;99.90;;;;;;10488223;28;20082;-71
2020/12/28 15:05:49;;;;;;;5.47;4.40;;;7.40;99.90;;;;;;10488752;28;20048;-70
2020/12/28 15:10:50;;;;;;;3.75;2.78;;;7.40;99.90;;;;;;10488272;28;20144;-69
2020/12/28 15:15:52;;;;;;;4.30;3.10;;;7.40;99.90;;;;;;10487120;28;20079;-69
2020/12/28 15:20:56;;;;;;;3.95;2.00;;;7.30;99.90;;;;;;10482466;28;20084;-69
2020/12/28 15:25:57;;;;;;;2.67;1.85;;;7.20;99.90;;;;;;10469711;28;20044;-69
2020/12/28 15:30:58;;;;;;;2.80;1.80;;;7.10;99.90;;;;;;10485429;28;20106;-69
2020/12/28 15:36:00;;;;;;;3.13;1.83;;;7.10;99.90;;;;;;10445103;28;20073;-69
2020/12/28 15:41:04;;;;;;;3.13;2.20;;;7.20;99.90;;;;;;10453883;28;20758;-69
2020/12/28 15:46:07;;;;;;;6.32;3.90;;;7.10;99.90;;;;;;10486205;28;20053;-69
2020/12/28 15:51:09;;;;;;;3.60;2.30;;;7.10;99.90;;;;;;10485241;28;20589;-69
2020/12/28 15:56:11;;;;;;;5.18;3.00;;;7.00;99.90;;;;;;10485653;28;20072;-70
2020/12/28 16:01:15;;;;;;;4.57;2.70;;;6.90;99.90;;;;;;10484764;28;20056;-69
2020/12/28 16:06:17;;;;;;;3.70;2.40;;;6.90;99.90;;;;;;10484527;28;20037;-69
2020/12/28 16:11:19;;;;;;;2.90;1.90;;;6.90;99.90;;;;;;10491812;28;20117;-69
2020/12/28 16:16:21;;;;;;;2.03;1.50;;;6.90;99.80;;;;;;10494092;28;20057;-70
2020/12/28 16:21:22;;;;;;;2.97;1.60;;;6.80;99.90;;;;;;10492603;28;20045;-69
2020/12/28 16:26:24;;;;;;;2.63;1.75;;;6.80;99.70;;;;;;10479136;28;20045;-69
2020/12/28 16:31:27;;;;;;;2.33;1.50;;;6.80;99.40;;;;;;10459608;28;20546;-69
2020/12/28 16:36:28;;;;;;;3.55;2.28;;;6.70;99.00;;;;;;10486603;28;20080;-71
2020/12/28 16:41:30;;;;;;;2.08;1.60;;;6.60;99.10;;;;;;10450808;28;20127;-70
2020/12/28 16:46:31;;;;;;;2.17;1.45;;;6.50;98.60;;;;;;10450968;28;20365;-69
2020/12/28 16:51:33;;;;;;;2.40;1.58;;;6.40;99.10;;;;;;10450985;28;20163;-69
2020/12/28 16:56:38;;;;;;;2.80;1.50;;;6.30;99.00;;;;;;10451919;28;20421;-69
2020/12/28 17:01:40;;;;;;;3.83;2.30;;;6.30;98.90;;;;;;10451668;28;20048;-69
2020/12/28 17:06:41;;;;;;;5.70;3.50;;;6.30;99.50;;;;;;10450673;28;20083;-69
2020/12/28 17:11:42;;;;;;;5.07;3.30;;;6.20;99.60;;;;;;10451285;28;20136;-69
2020/12/28 17:16:50;;;;;;;5.90;3.00;;;6.00;99.60;;;;;;10450975;28;20045;-69
2020/12/28 17:21:53;;;;;;;4.00;2.70;;;6.00;99.60;;;;;;10450285;28;20115;-69
2020/12/28 17:26:56;;;;;;;5.20;3.53;;;6.00;99.40;;;;;;10469895;28;20044;-69
2020/12/28 17:31:58;;;;;;;7.07;4.45;;;6.00;99.70;;;;;;10491443;28;20049;-69
2020/12/28 17:36:59;;;;;;;5.78;3.80;;;6.10;99.70;;;;;;10492233;28;20076;-69
2020/12/28 17:42:06;;;;;;;4.75;2.97;;;6.30;99.20;;;;;;10491599;28;20136;-69
2020/12/28 17:47:08;;;;;;;3.85;1.80;;;6.30;98.60;;;;;;10506981;28;20059;-69
2020/12/28 17:52:09;;;;;;;3.00;1.70;;;6.30;98.80;;;;;;10491722;28;20056;-69
2020/12/28 17:57:11;;;;;;;2.70;1.67;;;6.40;98.50;;;;;;10491696;28;20114;-69
2020/12/28 18:02:12;;;;;;;6.50;4.25;;;6.30;98.40;;;;;;10490938;28;20076;-69
2020/12/28 18:07:14;;;;;;;5.38;2.42;;;6.30;98.90;;;;;;10489953;28;20078;-70
2020/12/28 18:12:16;;;;;;;4.30;2.20;;;6.30;98.20;;;;;;10490071;28;20048;-70
2020/12/28 18:17:25;;;;;;;4.22;2.45;;;6.40;97.80;;;;;;10490475;28;20102;-70
2020/12/28 18:22:27;;;;;;;5.68;2.63;;;6.40;97.60;;;;;;10489809;28;20094;-71
2020/12/28 18:27:29;;;;;;;5.32;2.67;;;6.30;97.70;;;;;;10489807;28;20076;-70
2020/12/28 18:32:30;;;;;;;4.55;2.90;;;6.30;97.70;;;;;;10489479;28;20153;-70
2020/12/28 18:37:32;;;;;;;4.78;2.80;;;6.30;97.80;;;;;;10489625;28;20131;-70
2020/12/28 18:42:38;;;;;;;4.40;3.00;;;6.30;97.70;;;;;;10489955;28;20397;-70
2020/12/28 18:47:40;;;;;;;3.38;2.00;;;6.30;98.30;;;;;;10488762;28;20040;-69
2020/12/28 18:52:41;;;;;;;5.00;2.10;;;6.20;97.20;;;;;;10489182;28;20090;-69
2020/12/28 18:57:42;;;;;;;3.28;2.08;;;6.20;97.20;;;;;;10488921;28;20048;-69
2020/12/28 19:02:44;;;;;;;3.10;1.80;;;6.10;97.20;;;;;;10487036;28;20132;-69
2020/12/28 19:07:45;;;;;;;3.95;2.20;;;6.10;97.00;;;;;;10488859;28;20048;-70
2020/12/28 19:12:47;;;;;;;5.25;3.25;;;5.90;97.20;;;;;;10487966;28;20174;-70
2020/12/28 19:17:49;;;;;;;6.20;4.13;;;5.50;97.60;;;;;;10487548;28;20547;-70
2020/12/28 19:22:50;;;;;;;9.20;5.40;;;5.30;97.90;;;;;;10488220;28;20563;-70
2020/12/28 19:27:53;;;;;;;19.38;12.27;;;5.20;98.30;;;;;;10459805;28;20508;-69
2020/12/28 19:32:54;;;;;;;14.73;9.38;;;5.10;98.30;;;;;;10446848;28;20067;-71
2020/12/28 19:38:05;;;;;;;;;;;5.10;98.50;;;;;;10446824;28;20555;-70
2020/12/28 19:43:07;;;;;;;13.23;8.32;;;5.10;98.80;;;;;;10445695;28;19998;-70
2020/12/28 19:48:08;;;;;;;12.18;8.48;;;4.90;98.70;;;;;;10445546;28;20442;-70
2020/12/28 19:53:10;;;;;;;12.93;9.77;;;4.90;99.10;;;;;;10446865;28;20158;-70
2020/12/28 19:58:13;;;;;;;8.02;4.90;;;4.80;99.70;;;;;;10445538;28;20057;-70
2020/12/28 20:03:15;;;;;;;7.32;4.00;;;4.90;99.60;;;;;;10444290;28;20045;-69
2020/12/28 20:08:16;;;;;;;5.28;3.33;;;4.80;98.80;;;;;;10446212;28;20379;-70
2020/12/28 20:13:18;;;;;;;6.47;2.58;;;4.80;98.50;;;;;;10445479;28;20132;-69
2020/12/28 20:18:19;;;;;;;4.32;2.70;;;4.90;98.00;;;;;;10443447;28;20085;-70
2020/12/28 20:23:20;;;;;;;8.30;5.28;;;5.00;98.70;;;;;;10444131;28;20127;-70
2020/12/28 20:28:22;;;;;;;7.13;3.85;;;4.90;99.30;;;;;;10476029;28;20080;-70
2020/12/28 20:33:23;;;;;;;15.80;9.90;;;4.80;99.30;;;;;;10486875;28;20493;-69
2020/12/28 20:38:27;;;;;;;15.18;9.25;;;4.70;99.70;;;;;;10486713;28;20182;-70
2020/12/28 20:43:29;;;;;;;11.48;7.50;;;4.80;99.90;;;;;;10458144;28;20469;-71
2020/12/28 20:48:32;;;;;;;9.13;6.15;;;4.80;99.40;;;;;;10483950;28;20529;-71
2020/12/28 20:53:33;;;;;;;8.25;5.78;;;4.80;99.20;;;;;;10476970;28;20517;-70
2020/12/28 20:58:35;;;;;;;7.15;4.28;;;4.90;99.00;;;;;;10449742;28;20049;-70
2020/12/28 21:03:36;;;;;;;8.27;4.63;;;4.90;98.80;;;;;;10450615;28;20110;-70
2020/12/28 21:08:38;;;;;;;7.85;4.60;;;4.90;98.40;;;;;;10449198;28;20466;-70
2020/12/28 21:13:39;;;;;;;27.23;19.42;;;4.90;98.80;;;;;;10481588;28;20056;-70
2020/12/28 21:18:41;;;;;;;19.38;14.93;;;4.70;99.20;;;;;;10473691;28;20061;-70
2020/12/28 21:23:42;;;;;;;18.83;14.23;;;4.60;99.60;;;;;;10491395;28;20420;-70
2020/12/28 21:28:44;;;;;;;18.50;13.93;;;4.60;99.60;;;;;;10456553;28;20559;-70
2020/12/28 21:33:46;;;;;;;11.95;7.28;;;4.60;99.50;;;;;;10448201;28;20132;-70
2020/12/28 21:38:48;;;;;;;12.02;7.82;;;4.40;99.30;;;;;;10448566;28;20076;-70
2020/12/28 21:43:49;;;;;;;;;;;4.50;99.40;;;;;;10486719;28;20484;-70
2020/12/28 21:48:50;;;;;;;;;;;4.50;99.30;;;;;;10491475;28;20387;-70
2020/12/28 21:53:51;;;;;;;;;;;4.30;99.90;;;;;;10491001;28;19920;-70
2020/12/28 21:58:53;;;;;;;;;;;4.20;99.90;;;;;;10492135;28;19982;-70
2020/12/28 22:03:54;;;;;;;;;;;4.20;99.90;;;;;;10491341;28;20256;-68
2020/12/28 22:08:56;;;;;;;;;;;4.20;99.90;;;;;;10489355;28;19962;-68
2020/12/28 22:14:04;;;;;;;;;;;4.20;99.90;;;;;;10490654;28;20028;-68
2020/12/28 22:19:06;;;;;;;;;;;4.10;99.90;;;;;;10488600;28;19938;-68
2020/12/28 22:24:07;;;;;;;;;;;4.00;99.90;;;;;;10488792;28;19952;-70
2020/12/28 22:29:08;;;;;;;;;;;3.90;99.90;;;;;;10487420;28;19920;-70
2020/12/28 22:34:10;;;;;;;;;;;3.70;99.90;;;;;;10479490;28;19990;-69
2020/12/28 22:39:11;;;;;;;;;;;3.70;99.90;;;;;;10486511;28;19924;-69
2020/12/28 22:44:12;;;;;;;;;;;3.80;99.90;;;;;;10487618;28;20060;-69
2020/12/28 22:49:14;;;;;;;;;;;4.00;99.90;;;;;;10486459;28;20432;-69
2020/12/28 22:54:16;;;;;;;;;;;4.20;99.90;;;;;;10487330;28;19945;-69
2020/12/28 22:59:17;;;;;;;;;;;4.40;99.90;;;;;;10489567;28;19959;-69
2020/12/28 23:04:19;;;;;;;;;;;4.50;99.90;;;;;;10487426;28;20003;-70
2020/12/28 23:09:20;;;;;;;;;;;4.50;99.90;;;;;;10488045;28;19975;-69
2020/12/28 23:14:22;;;;;;;;;;;4.40;99.90;;;;;;10486354;28;19927;-70
2020/12/28 23:19:24;;;;;;;;;;;4.40;99.90;;;;;;10481533;28;20023;-70
2020/12/28 23:24:26;;;;;;;;;;;4.50;99.90;;;;;;10486137;28;20388;-69
2020/12/28 23:29:29;;;;;;;;;;;4.70;99.90;;;;;;10475669;28;19982;-70
2020/12/28 23:34:32;;;;;;;;;;;4.50;99.90;;;;;;10486125;28;20394;-69
2020/12/28 23:39:34;;;;;;;;;;;4.40;99.90;;;;;;10484858;28;19920;-69
2020/12/28 23:44:37;;;;;;;;;;;4.40;99.90;;;;;;10486548;28;20330;-70
2020/12/28 23:49:38;;;;;;;;;;;4.40;99.90;;;;;;10486239;28;19955;-70
2020/12/28 23:54:40;;;;;;;;;;;4.30;99.90;;;;;;10486549;28;19971;-69
2020/12/28 23:59:41;;;;;;;;;;;4.20;99.90;;;;;;10487624;28;19924;-70
